Station: Portable Qfrd Swr  

  Atmospheric Gas Attenuation - ITU Rec 676-11   ----------------- dB/100km -----------------
Date Time Temp RH % AH g/m3 Dew Point Wind Direction Speed kph Gust kph Barometer mB Rainfall Since 9am 24GHz 47GHz 76GHz 122GHz 134GHz 241GHz
08/05 12:20 18.2 24 3.73 -2.3 11 13 1013.1 0 9.1 17.9 20.9 54.0 37.7 126.0
08/05 12:10 17.9 23 3.51 -3.2 11 15 1013.1 0 8.7 17.6 20.3 52.4 35.6 118.5
08/05 12:00 17.7 23 3.47 -3.4 11 15 1013.1 0 8.6 17.6 20.3 52.2 35.3 117.4
08/05 11:50 17.5 23 3.43 -3.6 11 15 1013.1 0 8.5 17.6 20.2 52.0 35.0 116.2
08/05 11:40 17 26 3.76 -2.5 9 11 1013.1 0 9.2 18.1 21.3 55.1 38.6 128.9
08/05 11:30 16.5 26 3.65 -2.9 9 13 1013.1 0 9.0 18.1 21.1 54.5 37.7 125.7
08/05 11:20 16.3 28 3.88 -2.2 11 13 1013.1 0 9.5 18.4 21.9 56.6 40.2 134.5
08/05 11:10 15.6 30 3.99 -1.7 11 15 1013.1 0 9.8 18.7 22.4 58.0 41.7 139.8
08/05 11:00 15.5 31 4.1 -1.5 11 13 1013.1 0 10.0 18.9 22.8 59.0 43.0 144.1
08/05 10:50 15.6 32 4.26 -1.1 9 11 1013.1 0 10.3 19.1 23.3 60.4 44.6 150.0
08/05 10:40 15.2 32 4.15 -1.3 9 11 1013.1 0 10.1 19.0 23.1 59.7 43.7 146.5
08/05 10:30 14.6 33 4.13 -1.3 9 13 1013.1 0 10.1 19.1 23.2 60.0 43.8 146.8
08/05 10:20 14 32 3.86 -2.2 9 13 1013.1 0 9.5 18.8 22.4 58.0 41.1 137.5
08/05 10:10 13.8 33 3.93 -1.9 9 13 1013.1 0 9.7 19.0 22.7 58.8 42.0 140.5
08/05 10:00 13.7 34 4.03 -1.6 7 11 1013.1 0 9.9 19.1 23.1 59.7 43.1 144.6
08/05 09:50 13.2 34 3.9 -2.4 9 11 1013.1 0 9.6 19.1 22.8 58.9 42.0 140.4
08/05 09:40 13 35 3.97 -2 7 11 1013.1 0 9.8 19.2 23.1 59.7 42.9 143.4
08/05 09:30 12.6 37 4.09 -1.7 9 11 1013.1 0 10.1 19.4 23.6 61.1 44.4 148.9
08/05 09:20 12.3 37 4.02 -2 7 9 1013.1 0 9.9 19.4 23.4 60.7 43.8 146.6
08/05 09:10 12.1 37 3.97 -2 7 11 1013.1 0 9.8 19.4 23.3 60.4 43.3 145.0
08/05 09:00 11.7 38 3.98 -2.1 7 11 1013.1 0 9.8 19.5 23.5 60.7 43.7 146.1
08/05 08:50 11.6 38 3.95 -2.3 7 9 1013.1 0 9.8 19.5 23.4 60.5 43.4 145.1
08/05 08:40 11.2 42 4.26 -1.1 7 9 1013.1 0 10.5 20.0 24.6 63.7 47.1 158.3
08/05 08:30 10.5 44 4.27 -1.2 9 13 1013.1 0 10.5 20.1 24.8 64.4 47.7 160.0
08/05 08:20 10.1 45 4.26 -1.2 9 13 1013.1 0 10.5 20.2 24.9 64.6 47.8 160.4
08/05 08:10 9.4 47 4.25 -1.4 9 11 1013.1 0 10.5 20.4 25.1 65.0 48.1 161.4
08/05 08:00 8.9 47 4.12 -1.6 7 9 1013.1 0 10.2 20.3 24.8 64.2 46.8 157.0
08/05 07:50 8.4 49 4.16 -1.7 7 11 1013.1 0 10.3 20.4 25.1 65.0 47.6 159.6
08/05 07:40 8.2 50 4.19 -1.6 6 9 1013.1 0 10.4 20.5 25.2 65.4 48.1 161.3
08/05 07:30 7.7 49 3.97 -2.3 7 11 1013.1 0 9.9 20.3 24.6 63.7 45.8 153.0
08/05 07:20 7.3 50 3.95 -2.4 7 11 1013.1 0 9.9 20.4 24.6 63.9 45.8 153.0
08/05 07:10 7 49 3.8 -2.8 6 7 1013.1 0 9.6 20.2 24.2 62.7 44.2 147.2
08/05 07:00 6.3 52 3.85 -2.7 6 6 1013.1 0 9.7 20.5 24.6 63.7 45.1 150.6
08/05 06:50 5.4 56 3.91 -2.7 6 6 1013.1 0 9.9 20.7 25.1 65.0 46.4 154.9
08/05 06:40 4.4 60 3.92 -2.6 6 6 1013.1 0 9.9 21.0 25.4 65.9 47.1 157.2
08/05 06:30 4.2 62 4 -2.4 4 4 1013.1 0 10.1 21.2 25.8 66.9 48.2 161.1
08/05 06:20 4.9 58 3.92 -2.7 2 4 1013.1 0 9.9 20.9 25.3 65.5 46.8 156.3
08/05 06:10 5.5 54 3.8 -3 6 6 1013.1 0 9.6 20.6 24.6 63.8 45.0 150.0
08/05 06:00 5.7 52 3.7 -3.3 7 9 1013.1 0 9.4 20.4 24.2 62.7 43.7 145.4
08/05 05:50 5.7 52 3.7 -3.3 7 9 1013.1 0 9.4 20.4 24.2 62.7 43.7 145.4
08/05 05:40 5.7 52 3.7 -3.3 9 13 1013.1 0 9.4 20.4 24.2 62.7 43.7 145.4
08/05 05:30 5.1 55 3.76 -3.1 6 7 1013.1 0 9.6 20.6 24.6 63.8 44.7 149.0
08/05 05:20 5.2 56 3.86 -2.9 4 7 1013.1 0 9.8 20.7 24.9 64.7 45.9 153.1
08/05 05:10 5.2 54 3.72 -3.3 9 9 1013.1 0 9.5 20.5 24.4 63.3 44.2 147.1
08/05 05:00 4.4 60 3.92 -2.7 6 7 1013.1 0 9.9 21.0 25.4 65.9 47.1 157.2
08/05 04:50 4.3 62 4.02 -2.4 4 6 1013.1 0 10.1 21.2 25.8 67.0 48.4 161.8
08/05 04:40 4.8 59 3.96 -2.4 7 9 1013.1 0 10.0 21.0 25.4 66.0 47.4 158.2
08/05 04:30 5.3 57 3.95 -2.4 7 9 1013.1 0 10.0 20.8 25.2 65.5 46.9 156.8
08/05 04:20 5.8 55 3.94 -2.6 9 11 1013.1 0 9.9 20.7 25.1 65.0 46.5 155.4
08/05 04:10 6 53 3.85 -2.7 11 11 1013.1 0 9.7 20.5 24.7 63.9 45.3 151.2
08/05 04:00 6 52 3.78 -3 9 11 1013.1 0 9.6 20.4 24.4 63.2 44.5 148.2
08/05 03:50 5.8 55 3.94 -2.6 6 9 1013.1 0 9.9 20.7 25.1 65.0 46.5 155.4
08/05 03:40 5.7 54 3.85 -2.9 4 6 1013.1 0 9.7 20.6 24.8 64.2 45.5 151.7
08/05 03:30 5.7 56 3.99 -2.3 6 6 1013.1 0 10.0 20.8 25.3 65.5 47.2 157.7
08/05 03:20 5.8 56 4.01 -2.2 4 6 1013.1 0 10.1 20.8 25.3 65.7 47.4 158.4
08/05 03:10 6.3 54 4 -2.2 6 7 1013.1 0 10.0 20.7 25.1 65.2 46.9 157.0
08/05 03:00 6.3 55 4.07 -2 6 9 1013.1 0 10.2 20.8 25.4 65.8 47.8 160.0
08/05 02:50 6.3 54 4 -2.2 6 7 1013.1 0 10.0 20.7 25.1 65.2 46.9 157.0
08/05 02:40 6.4 54 4.03 -2.1 6 7 1013.1 0 10.1 20.7 25.2 65.4 47.3 158.1
08/05 02:30 6.4 55 4.1 -1.9 6 7 1013.1 0 10.3 20.8 25.5 66.0 48.1 161.0
08/05 02:20 6.7 54 4.11 -1.8 6 7 1013.1 0 10.3 20.8 25.4 65.9 48.0 160.9
08/05 02:10 7 53 4.11 -1.8 6 7 1013.1 0 10.3 20.7 25.3 65.7 47.9 160.3
08/05 02:00 7.1 52 4.06 -2.1 6 9 1013.1 0 10.2 20.6 25.1 65.1 47.2 158.0
08/05 01:50 7.4 52 4.14 -1.8 7 9 1013.1 0 10.3 20.6 25.3 65.6 48.0 160.8
08/05 01:40 7.5 52 4.16 -1.7 7 7 1013.1 0 10.4 20.6 25.3 65.7 48.2 161.4
08/05 01:30 7.4 53 4.22 -1.4 6 7 1013.1 0 10.5 20.8 25.6 66.4 48.9 164.1
08/05 01:20 7.4 55 4.38 -0.9 6 7 1013.1 0 10.8 21.0 26.2 68.0 50.9 170.9
08/05 01:10 7.7 55 4.46 -0.8 7 9 1013.1 0 11.0 21.0 26.4 68.5 51.7 173.7
08/05 01:00 7.9 53 4.36 -1 7 9 1013.1 0 10.8 20.8 25.9 67.3 50.3 169.0
08/05 00:50 8.2 52 4.36 -1 9 9 1013.1 0 10.8 20.8 25.8 67.1 50.1 168.4
08/05 00:40 8.3 53 4.47 -0.7 7 9 1013.1 0 11.0 20.9 26.2 68.1 51.4 172.8
08/05 00:30 8.8 51 4.44 -0.7 7 11 1013.1 0 10.9 20.8 25.9 67.4 50.7 170.5
08/05 00:20 8.6 55 4.73 0.2 6 9 1013.1 0 11.5 21.2 27.1 70.4 54.3 183.2
08/05 00:10 8.8 61 5.31 1.8 7 9 1013.1 0 12.8 22.1 29.1 75.9 61.3 207.7
08/05 00:00 9.2 62 5.54 2.4 6 7 1013.1 0 13.2 22.3 29.9 77.9 63.8 216.7
07/05 23:50 9.4 64 5.79 2.9 6 9 1013.1 0 13.8 22.6 30.7 80.2 66.8 227.1
07/05 23:40 9.7 64 5.9 3.3 7 9 1013.1 0 14.0 22.7 31.0 81.0 67.9 231.1
07/05 23:30 9.9 64 5.98 3.5 7 9 1013.1 0 14.2 22.8 31.3 81.6 68.8 234.1
07/05 23:20 10 66 6.2 3.9 6 7 1013.1 0 14.6 23.1 32.1 83.8 71.4 243.5
07/05 23:10 10.2 65 6.19 4 6 9 1013.1 0 14.6 23.1 31.9 83.4 71.1 242.5
07/05 23:00 10.5 65 6.31 4.3 7 7 1013.1 0 14.8 23.2 32.3 84.4 72.4 246.9
07/05 22:50 10.7 65 6.39 4.4 7 11 1013.1 0 15.0 23.2 32.5 85.0 73.2 249.8
07/05 22:40 11 64 6.41 4.5 7 9 1013.1 0 15.0 23.2 32.5 84.8 73.2 249.7
07/05 22:30 11.2 64 6.49 4.8 9 11 1013.1 0 15.2 23.3 32.7 85.5 74.0 252.7
07/05 22:20 11.4 65 6.67 5 9 11 1013.1 0 15.6 23.5 33.3 87.1 76.1 260.0
07/05 22:10 11.6 64 6.65 5.1 9 11 1013.1 0 15.5 23.4 33.1 86.7 75.6 258.5
07/05 22:00 11.8 67 7.05 5.9 7 9 1013.1 0 16.4 24.0 34.6 90.6 80.5 275.6
07/05 21:50 12 66 7.03 6 9 11 1013.1 0 16.3 23.9 34.4 90.1 80.1 274.0
07/05 21:40 12.4 64 6.99 5.9 11 15 1013.1 0 16.2 23.7 34.1 89.3 79.1 270.9
07/05 21:30 12.6 63 6.97 5.7 13 15 1013.1 0 16.2 23.6 34.0 88.8 78.7 269.3
07/05 21:20 12.2 61 6.58 5 9 13 1013.1 0 15.3 23.1 32.6 85.3 74.2 253.4
07/05 21:10 11.5 65 6.71 5.3 6 7 1013.1 0 15.7 23.5 33.4 87.4 76.5 261.4
07/05 21:00 11.5 64 6.61 4.9 7 7 1013.1 0 15.4 23.4 33.0 86.4 75.2 257.0
07/05 20:50 11.4 65 6.67 5.1 6 6 1013.1 0 15.6 23.5 33.3 87.1 76.1 260.0
07/05 20:40 11.4 64 6.57 4.9 4 6 1013.1 0 15.4 23.3 32.9 86.1 74.8 255.6
07/05 20:30 11.6 62 6.45 4.6 4 6 1013.1 0 15.1 23.1 32.4 84.6 73.1 249.6
07/05 20:20 11.9 60 6.36 4.5 6 7 1013.1 0 14.9 22.9 31.9 83.4 71.7 244.8
07/05 20:10 12.4 58 6.34 4.5 7 9 1013.1 0 14.8 22.7 31.6 82.7 71.0 242.4
07/05 20:00 12.8 55 6.16 4.1 7 7 1013.1 0 14.4 22.4 30.8 80.5 68.5 233.4
07/05 19:50 13.2 56 6.43 4.6 7 9 1013.1 0 15.0 22.7 31.7 82.7 71.4 243.8

Last Refresh: 08-May-2026 12:07:37

Bureau of Meteorology